Time;durP1;ratioP1;P1;durP2;ratioP2;P2;SDS_P1;SDS_P2;PMS_P1;PMS_P2;Temp;Humidity;BMP_temperature;BMP_pressure;BME280_temperature;BME280_humidity;BME280_pressure;Samples;Min_cycle;Max_cycle;Signal;HPM_P1;HPM_P2
2023/01/06 00:01:40;;;;;;;1.40;1.20;;;;;;;6.69;96.14;98981.41;1634549;88;21070;-65
2023/01/06 00:04:09;;;;;;;1.82;1.30;;;;;;;6.70;96.33;98984.97;1634373;88;21763;-63
2023/01/06 00:06:38;;;;;;;1.12;0.80;;;;;;;6.71;96.42;98993.45;1634409;88;21133;-64
2023/01/06 00:09:09;;;;;;;1.45;1.00;;;;;;;6.71;96.41;99000.25;1634512;88;22097;-64
2023/01/06 00:11:38;;;;;;;1.30;0.78;;;;;;;6.72;96.43;99001.92;1634576;88;21142;-64
2023/01/06 00:14:08;;;;;;;1.80;1.00;;;;;;;6.72;96.53;99001.92;1647289;85;21032;-66
2023/01/06 00:16:39;;;;;;;1.62;0.90;;;;;;;6.73;96.67;99001.72;1692693;85;21036;-65
2023/01/06 00:19:10;;;;;;;2.47;1.40;;;;;;;6.67;96.72;99000.66;1692297;85;21528;-66
2023/01/06 00:21:41;;;;;;;1.57;1.00;;;;;;;6.63;96.93;99006.73;1690231;84;21103;-66
2023/01/06 00:24:10;;;;;;;1.92;1.00;;;;;;;6.60;97.23;99003.06;1692747;85;21155;-65
2023/01/06 00:26:42;;;;;;;2.08;1.10;;;;;;;6.56;97.74;99004.52;1692358;85;21060;-65
2023/01/06 00:29:12;;;;;;;1.65;1.12;;;;;;;6.52;97.92;99012.25;1692669;85;21461;-65
2023/01/06 00:31:42;;;;;;;1.35;0.90;;;;;;;6.48;98.19;99015.03;1692792;85;21040;-65
2023/01/06 00:34:14;;;;;;;1.42;0.90;;;;;;;6.47;98.30;99026.13;1692404;85;21017;-64
2023/01/06 00:36:43;;;;;;;2.80;1.02;;;;;;;6.43;98.52;99024.33;1692612;85;21025;-65
2023/01/06 00:39:14;;;;;;;2.20;0.90;;;;;;;6.42;98.60;99028.09;1692477;85;21516;-65
2023/01/06 00:42:03;;;;;;;3.58;0.98;;;;;;;6.41;98.64;99026.42;1692354;84;21528;-64
2023/01/06 00:44:34;;;;;;;;;;;;;;;6.41;98.73;99037.30;1695251;85;21460;-63
2023/01/06 00:47:06;;;;;;;2.30;0.93;;;;;;;6.37;98.77;99038.75;1692533;85;20187;-64
2023/01/06 00:49:37;;;;;;;1.80;1.02;;;;;;;6.37;98.89;99038.75;1690220;84;21052;-64
2023/01/06 00:52:07;;;;;;;1.27;0.90;;;;;;;6.35;98.91;99043.04;1692462;85;21107;-64
2023/01/06 00:54:36;;;;;;;1.90;1.02;;;;;;;6.35;98.99;99051.72;1692619;85;21044;-65
2023/01/06 00:57:06;;;;;;;1.75;0.98;;;;;;;6.33;99.04;99049.72;1692431;85;21044;-66
2023/01/06 00:59:37;;;;;;;2.52;1.40;;;;;;;6.35;99.17;99055.80;1692500;85;21500;-65
2023/01/06 01:02:06;;;;;;;3.35;1.30;;;;;;;6.36;99.29;99054.76;1693090;85;21128;-65
2023/01/06 01:04:38;;;;;;;2.70;1.32;;;;;;;6.37;99.28;99053.72;1626381;88;21116;-65
2023/01/06 01:07:09;;;;;;;2.72;1.57;;;;;;;6.35;99.28;99060.72;1591004;89;21048;-64
2023/01/06 01:09:40;;;;;;;3.10;1.12;;;;;;;6.36;99.36;99067.84;1626229;88;21088;-65
2023/01/06 01:12:11;;;;;;;2.22;1.17;;;;;;;6.37;99.36;99063.23;1590829;90;21563;-65
2023/01/06 01:14:52;;;;;;;2.60;1.17;;;;;;;6.36;99.32;99072.44;1626019;88;21097;-64
2023/01/06 01:17:26;;;;;;;2.00;1.07;;;;;;;6.35;99.32;99080.28;1570562;90;21045;-64
2023/01/06 01:19:56;;;;;;;0.93;0.65;;;;;;;6.33;99.04;99106.84;1590665;90;21018;-65
2023/01/06 01:22:29;;;;;;;1.30;0.90;;;;;;;6.21;97.89;99098.95;1599058;86;21494;-67
2023/01/06 01:24:59;;;;;;;1.20;1.00;;;;;;;6.02;96.58;99125.83;1692479;85;21115;-65
2023/01/06 01:27:30;;;;;;;1.92;1.40;;;;;;;5.81;95.78;99130.42;1692609;85;21096;-66
2023/01/06 01:30:01;;;;;;;2.40;1.45;;;;;;;5.64;95.28;99130.72;1692461;85;21044;-64
2023/01/06 01:32:32;;;;;;;2.50;1.72;;;;;;;5.51;95.07;99139.28;1692663;85;21060;-64
2023/01/06 01:35:02;;;;;;;2.75;1.95;;;;;;;5.40;95.03;99139.30;1667710;85;21080;-64
2023/01/06 01:37:32;;;;;;;3.05;1.90;;;;;;;5.28;95.03;99142.22;1692469;84;21270;-65
2023/01/06 01:40:01;;;;;;;2.80;1.82;;;;;;;5.19;95.01;99153.70;1692308;85;21519;-65
2023/01/06 01:42:31;;;;;;;3.65;2.00;;;;;;;5.07;94.79;99151.17;1675236;84;21061;-64
2023/01/06 01:45:23;;;;;;;3.02;1.75;;;;;;;4.95;94.81;99163.05;1697225;84;21539;-65
2023/01/06 01:48:03;;;;;;;2.98;1.70;;;;;;;4.89;94.87;99167.05;1668417;85;21057;-65
2023/01/06 01:50:41;;;;;;;2.85;1.80;;;;;;;4.81;94.69;99172.59;1682865;84;21446;-64
2023/01/06 01:53:21;;;;;;;1.85;1.32;;;;;;;4.67;94.26;99175.15;1696382;84;21114;-64
2023/01/06 01:55:52;;;;;;;2.75;1.57;;;;;;;4.56;93.69;99178.86;1641350;86;21113;-64
2023/01/06 01:58:27;;;;;;;1.95;1.20;;;;;;;4.42;93.39;99196.28;1643320;86;21057;-63
2023/01/06 02:00:56;;;;;;;1.67;1.17;;;;;;;4.32;93.26;99194.37;1673333;84;21022;-64
2023/01/06 02:03:25;;;;;;;1.82;1.12;;;;;;;4.23;93.14;99204.98;1697150;84;21030;-63
2023/01/06 02:05:58;;;;;;;1.85;1.00;;;;;;;4.18;93.18;99209.28;1668022;85;21081;-64
2023/01/06 02:08:36;;;;;;;1.87;0.90;;;;;;;4.10;92.83;99207.50;1673032;84;21458;-63
2023/01/06 02:11:05;;;;;;;1.12;0.90;;;;;;;3.98;92.46;99222.02;1629923;87;21061;-65
2023/01/06 02:13:38;;;;;;;0.62;0.62;;;;;;;3.87;92.41;99217.02;1608621;88;21049;-64
2023/01/06 02:16:13;;;;;;;0.82;0.82;;;;;;;3.79;92.38;99227.41;1630010;87;21137;-63
2023/01/06 02:19:04;;;;;;;1.17;1.00;;;;;;;3.74;92.50;99227.62;1630136;87;21462;-64
2023/01/06 02:22:01;;;;;;;0.90;0.90;;;;;;;3.71;92.83;99239.67;1608801;88;21010;-63
2023/01/06 02:24:55;;;;;;;1.00;0.90;;;;;;;3.72;93.13;99247.28;1559488;88;21226;-63
2023/01/06 02:27:53;;;;;;;1.00;0.90;;;;;;;3.65;92.98;99245.81;1630124;88;21053;-63
2023/01/06 02:30:51;;;;;;;0.93;0.90;;;;;;;3.58;93.19;99262.46;1663349;84;21450;-64
2023/01/06 02:33:34;;;;;;;1.15;1.00;;;;;;;3.56;93.29;99263.16;1606496;87;21493;-62
2023/01/06 02:36:20;;;;;;;1.45;1.10;;;;;;;3.52;93.43;99266.41;1673337;84;21080;-63
2023/01/06 02:39:21;;;;;;;1.87;1.20;;;;;;;3.52;93.51;99278.59;1673479;84;21042;-63
2023/01/06 02:42:19;;;;;;;3.00;1.25;;;;;;;3.46;93.60;99290.47;1663384;85;21022;-63
2023/01/06 02:45:01;;;;;;;1.80;1.20;;;;;;;3.45;93.67;99294.71;1691187;84;21748;-61
2023/01/06 02:47:56;;;;;;;1.40;1.30;;;;;;;3.40;93.72;99297.95;1679211;85;21031;-65
2023/01/06 02:50:43;;;;;;;1.20;1.10;;;;;;;3.37;93.59;99301.53;1694343;84;21030;-62
2023/01/06 02:53:51;;;;;;;1.35;1.20;;;;;;;3.34;93.74;99301.38;1679328;85;21087;-63
2023/01/06 02:56:23;;;;;;;1.20;1.10;;;;;;;3.32;93.74;99310.70;1691630;84;21043;-64
2023/01/06 02:59:00;;;;;;;1.67;1.37;;;;;;;3.32;93.72;99310.19;1679096;85;21032;-63
2023/01/06 03:01:38;;;;;;;1.45;1.17;;;;;;;3.30;93.67;99335.24;1674332;85;21030;-64
2023/01/06 03:04:13;;;;;;;1.40;1.20;;;;;;;3.27;93.56;99338.30;1639703;87;21072;-63
2023/01/06 03:06:46;;;;;;;1.70;1.37;;;;;;;3.27;93.67;99357.77;1640845;87;21112;-65
2023/01/06 03:09:21;;;;;;;1.40;1.22;;;;;;;3.28;93.66;99369.77;1619265;87;21112;-62
2023/01/06 03:11:50;;;;;;;1.82;1.45;;;;;;;3.27;93.54;99368.59;1640876;86;21134;-63
2023/01/06 03:14:34;;;;;;;1.60;1.50;;;;;;;3.24;93.35;99378.38;1640912;86;21049;-62
2023/01/06 03:17:05;;;;;;;1.80;1.20;;;;;;;3.22;93.43;99374.50;1619733;87;21128;-64
2023/01/06 03:19:34;;;;;;;1.65;1.50;;;;;;;3.21;93.32;99377.38;1618864;87;21053;-63
2023/01/06 03:22:06;;;;;;;2.22;1.60;;;;;;;3.17;93.01;99381.79;1662930;85;21497;-63
2023/01/06 03:24:36;;;;;;;1.40;1.30;;;;;;;3.13;93.10;99387.22;1679151;85;21051;-64
2023/01/06 03:27:07;;;;;;;1.85;1.67;;;;;;;3.13;93.19;99396.69;1674961;85;21026;-63
2023/01/06 03:29:37;;;;;;;2.45;1.98;;;;;;;3.11;93.10;99397.38;1662298;85;21047;-64
2023/01/06 03:32:39;;;;;;;2.50;1.77;;;;;;;3.10;93.26;99403.80;1693752;85;21405;-63
2023/01/06 03:35:30;;;;;;;2.15;1.87;;;;;;;3.07;93.09;99413.63;1697264;84;21110;-63
2023/01/06 03:38:14;;;;;;;2.25;1.90;;;;;;;3.04;93.15;99430.72;1680027;85;21078;-63
2023/01/06 03:41:09;;;;;;;1.92;1.75;;;;;;;3.01;93.05;99436.48;1693677;84;21027;-64
2023/01/06 03:43:55;;;;;;;2.55;2.20;;;;;;;3.00;93.13;99441.05;1668090;85;21489;-63
2023/01/06 03:46:36;;;;;;;2.30;2.03;;;;;;;2.97;93.13;99438.68;1668427;86;21011;-64
2023/01/06 03:49:22;;;;;;;2.40;1.92;;;;;;;2.97;93.23;99441.39;1643322;86;21840;-63
2023/01/06 03:51:56;;;;;;;3.10;2.47;;;;;;;2.95;93.32;99455.59;1595020;89;21524;-64
2023/01/06 03:54:37;;;;;;;2.98;2.20;;;;;;;2.93;93.13;99463.55;1614719;89;21082;-62
2023/01/06 03:57:17;;;;;;;2.83;2.33;;;;;;;2.89;93.09;99456.28;1517678;94;21095;-62
2023/01/06 03:59:56;;;;;;;3.47;2.50;;;;;;;2.89;93.03;99468.97;1517725;94;21118;-66
2023/01/06 04:02:25;;;;;;;4.65;2.72;;;;;;;2.85;92.94;99476.58;1517486;94;21566;-64
2023/01/06 04:05:17;;;;;;;2.37;2.00;;;;;;;2.82;92.87;99488.59;1499261;94;21518;-64
2023/01/06 04:07:47;;;;;;;2.80;2.40;;;;;;;2.78;92.74;99498.05;1517555;94;21154;-74
2023/01/06 04:10:19;;;;;;;3.45;2.50;;;;;;;2.74;92.68;99506.68;1542716;90;21121;-63
2023/01/06 04:12:50;;;;;;;3.50;2.60;;;;;;;2.73;92.84;99509.89;1589339;89;21085;-65
2023/01/06 04:15:23;;;;;;;3.60;2.90;;;;;;;2.73;92.73;99515.81;1646873;84;21023;-64
2023/01/06 04:17:53;;;;;;;3.40;2.62;;;;;;;2.72;92.70;99525.78;1639730;87;21081;-64
2023/01/06 04:20:28;;;;;;;3.95;2.80;;;;;;;2.72;92.56;99535.25;1696895;84;21062;-62
2023/01/06 04:22:59;;;;;;;;;;;;;;;2.68;92.40;99546.06;1699070;84;21058;-64
2023/01/06 04:25:31;;;;;;;4.25;3.10;;;;;;;2.64;92.14;99552.83;1696910;84;20549;-64
2023/01/06 04:28:03;;;;;;;4.15;3.10;;;;;;;2.59;92.32;99548.91;1696054;84;21070;-62
2023/01/06 04:30:33;;;;;;;3.85;2.80;;;;;;;2.61;92.47;99565.33;1668444;85;21056;-63
2023/01/06 04:33:03;;;;;;;3.77;3.12;;;;;;;2.64;92.55;99562.29;1697218;84;21066;-63
2023/01/06 04:35:33;;;;;;;4.65;3.35;;;;;;;2.64;92.38;99574.97;1673246;84;21054;-63
2023/01/06 04:38:02;;;;;;;4.65;3.27;;;;;;;2.66;92.34;99574.30;1668337;86;21132;-63
2023/01/06 04:40:32;;;;;;;4.10;3.08;;;;;;;2.64;92.09;99579.87;1696929;84;21062;-63
2023/01/06 04:43:04;;;;;;;4.65;3.33;;;;;;;2.64;91.91;99589.84;1689933;84;21014;-64
2023/01/06 04:45:35;;;;;;;4.95;3.70;;;;;;;2.62;91.77;99603.53;1668966;86;21469;-63
2023/01/06 04:48:05;;;;;;;4.58;3.42;;;;;;;2.63;91.73;99606.57;1668839;86;21461;-63
2023/01/06 04:50:34;;;;;;;5.55;3.55;;;;;;;2.65;91.64;99611.30;1656709;86;21015;-63
2023/01/06 04:53:04;;;;;;;4.75;3.40;;;;;;;2.67;91.47;99611.98;1692670;85;21044;-62
2023/01/06 04:55:38;;;;;;;4.12;3.30;;;;;;;2.65;91.31;99622.13;1626098;88;21084;-62
2023/01/06 04:58:08;;;;;;;4.25;3.25;;;;;;;2.62;91.01;99630.56;1591606;90;21112;-62
2023/01/06 05:00:37;;;;;;;5.03;3.90;;;;;;;2.58;90.85;99633.73;1627438;88;21068;-63
2023/01/06 05:03:07;;;;;;;5.62;3.95;;;;;;;2.59;90.86;99648.95;1571437;90;21065;-65
2023/01/06 05:05:37;;;;;;;5.42;3.98;;;;;;;2.57;90.64;99644.22;1591184;90;21049;-62
2023/01/06 05:08:08;;;;;;;5.25;3.75;;;;;;;2.55;90.54;99648.44;1605524;88;21111;-63
2023/01/06 05:10:37;;;;;;;6.17;3.92;;;;;;;2.54;90.42;99658.91;1590746;90;21106;-64
2023/01/06 05:13:07;;;;;;;5.85;4.08;;;;;;;2.53;90.47;99680.20;1590725;90;21518;-64
2023/01/06 05:15:37;;;;;;;5.80;4.05;;;;;;;2.52;90.59;99678.50;1590864;90;21481;-64
2023/01/06 05:18:06;;;;;;;7.05;4.37;;;;;;;2.52;90.58;99694.73;1570808;90;21065;-64
2023/01/06 05:20:37;;;;;;;4.47;3.50;;;;;;;2.51;90.56;99710.61;1644297;86;21458;-63
2023/01/06 05:23:06;;;;;;;5.25;3.70;;;;;;;2.51;90.58;99722.27;1657023;86;21463;-63
2023/01/06 05:25:37;;;;;;;5.83;4.42;;;;;;;2.49;90.35;99718.04;1692413;84;21051;-63
2023/01/06 05:28:07;;;;;;;8.15;4.65;;;;;;;2.47;90.26;99732.22;1692633;85;21515;-63
2023/01/06 05:30:36;;;;;;;7.72;4.53;;;;;;;2.44;90.12;99730.69;1692707;85;21476;-62
2023/01/06 05:33:05;;;;;;;7.00;4.20;;;;;;;2.42;90.24;99733.21;1667115;85;21494;-62
2023/01/06 05:35:35;;;;;;;5.00;3.58;;;;;;;2.41;90.33;99749.94;1667142;85;21514;-64
2023/01/06 05:38:06;;;;;;;5.22;3.90;;;;;;;2.44;90.58;99744.71;1692348;85;21464;-63
2023/01/06 05:40:35;;;;;;;6.08;4.25;;;;;;;2.43;90.50;99746.56;1692439;85;21056;-62
2023/01/06 05:43:05;;;;;;;5.78;3.80;;;;;;;2.38;90.49;99754.31;1655526;86;21069;-64
2023/01/06 05:45:34;;;;;;;5.97;4.03;;;;;;;2.38;90.65;99753.47;1699190;84;21075;-65
2023/01/06 05:48:04;;;;;;;6.45;4.33;;;;;;;2.36;90.77;99759.03;1699085;84;21461;-64
2023/01/06 05:50:35;;;;;;;6.40;4.40;;;;;;;2.33;90.61;99778.78;1699105;84;21046;-64
2023/01/06 05:53:05;;;;;;;6.05;4.20;;;;;;;2.30;90.73;99777.75;1699589;84;21025;-63
2023/01/06 05:55:35;;;;;;;5.05;3.90;;;;;;;2.31;90.81;99784.85;1672026;84;21298;-63
2023/01/06 05:58:04;;;;;;;5.97;3.62;;;;;;;2.27;90.80;99791.59;1699023;84;21493;-63
2023/01/06 06:00:34;;;;;;;5.92;3.25;;;;;;;2.26;91.07;99798.84;1699082;83;21002;-64
2023/01/06 06:03:04;;;;;;;4.72;3.60;;;;;;;2.25;90.89;99799.00;1699258;84;21140;-63
2023/01/06 06:05:35;;;;;;;5.05;3.55;;;;;;;2.21;90.90;99811.48;1699104;84;21014;-64
2023/01/06 06:08:04;;;;;;;3.75;3.10;;;;;;;2.17;90.97;99806.05;1699255;84;21054;-65
2023/01/06 06:10:35;;;;;;;4.95;2.77;;;;;;;2.14;90.96;99817.69;1608654;89;21061;-63
2023/01/06 06:13:05;;;;;;;4.37;3.02;;;;;;;2.13;90.95;99826.80;1608542;89;21491;-65
2023/01/06 06:15:35;;;;;;;3.92;2.47;;;;;;;2.11;90.92;99834.21;1608142;88;21119;-64
2023/01/06 06:18:05;;;;;;;3.77;2.75;;;;;;;2.10;90.84;99834.72;1608626;89;21060;-64
2023/01/06 06:20:33;;;;;;;5.53;3.27;;;;;;;2.06;90.53;99852.25;1608401;89;21068;-64
2023/01/06 06:23:02;;;;;;;3.60;2.80;;;;;;;2.01;90.28;99856.42;1608389;89;21093;-65
2023/01/06 06:25:31;;;;;;;6.45;3.15;;;;;;;1.98;90.37;99862.98;1608544;89;21061;-64
2023/01/06 06:28:01;;;;;;;3.85;2.70;;;;;;;1.96;90.40;99870.40;1627094;84;21023;-65
2023/01/06 06:30:31;;;;;;;3.25;2.35;;;;;;;1.96;90.14;99892.52;1699361;84;21050;-64
2023/01/06 06:33:00;;;;;;;3.92;2.65;;;;;;;1.92;90.02;99886.54;1699310;84;21043;-66
2023/01/06 06:35:30;;;;;;;3.50;2.80;;;;;;;1.89;89.66;99890.91;1699310;84;21102;-64
2023/01/06 06:37:59;;;;;;;3.45;2.58;;;;;;;1.90;89.85;99889.90;1699078;84;21086;-64
2023/01/06 06:40:28;;;;;;;4.47;2.67;;;;;;;1.90;89.64;99900.20;1608404;88;21069;-64
2023/01/06 06:42:57;;;;;;;3.70;2.40;;;;;;;1.87;89.59;99899.66;1608611;88;21126;-65
2023/01/06 06:45:26;;;;;;;4.20;3.30;;;;;;;1.82;89.46;99912.28;1608368;89;21129;-64
2023/01/06 06:47:56;;;;;;;3.20;2.40;;;;;;;1.81;89.58;99927.28;1608370;89;21186;-64
2023/01/06 06:50:25;;;;;;;4.90;2.80;;;;;;;1.81;89.71;99936.23;1608607;88;21504;-64
2023/01/06 06:52:55;;;;;;;4.45;2.52;;;;;;;1.80;89.77;99943.14;1608384;88;21109;-64
2023/01/06 06:55:24;;;;;;;10.75;9.05;;;;;;;1.76;89.81;99947.16;1608415;88;21588;-66
2023/01/06 06:57:53;;;;;;;4.47;2.33;;;;;;;1.74;89.94;99965.36;1625892;84;20999;-65
2023/01/06 07:00:24;;;;;;;3.40;2.20;;;;;;;1.69;89.78;99967.66;1699113;84;21054;-66
2023/01/06 07:02:53;;;;;;;3.17;2.17;;;;;;;1.66;89.93;99969.31;1699411;84;21030;-65
2023/01/06 07:05:24;;;;;;;3.77;2.22;;;;;;;1.64;89.86;99976.72;1699223;84;21022;-65
2023/01/06 07:07:56;;;;;;;3.52;2.20;;;;;;;1.62;89.56;99984.13;1671396;84;21027;-66
2023/01/06 07:10:27;;;;;;;2.87;2.20;;;;;;;1.62;89.57;99996.27;1699642;84;21084;-66
2023/01/06 07:12:57;;;;;;;3.30;2.10;;;;;;;1.57;89.38;99998.92;1699570;83;21442;-64
2023/01/06 07:15:28;;;;;;;2.67;1.85;;;;;;;1.53;89.14;100012.88;1699368;83;21446;-64
2023/01/06 07:18:04;;;;;;;2.52;1.77;;;;;;;1.48;88.63;100010.63;1699243;84;21062;-65
2023/01/06 07:20:37;;;;;;;2.83;1.85;;;;;;;1.44;88.00;100021.86;1673565;84;21046;-65
2023/01/06 07:23:08;;;;;;;2.85;1.80;;;;;;;1.40;87.65;100037.51;1699536;84;21018;-66
2023/01/06 07:25:37;;;;;;;2.83;1.80;;;;;;;1.35;87.07;100045.70;1699221;84;21035;-65
2023/01/06 07:28:08;;;;;;;2.47;1.60;;;;;;;1.33;86.82;100040.45;1699269;84;21583;-65
2023/01/06 07:30:38;;;;;;;3.60;1.57;;;;;;;1.34;86.88;100054.30;1699289;84;21536;-66
2023/01/06 07:33:08;;;;;;;2.83;1.90;;;;;;;1.35;86.67;100069.48;1699231;84;21026;-66
2023/01/06 07:35:37;;;;;;;2.35;1.52;;;;;;;1.35;86.17;100066.79;1699419;84;21081;-65
2023/01/06 07:38:07;;;;;;;2.47;1.60;;;;;;;1.36;86.04;100074.39;1699164;84;21081;-65
2023/01/06 07:40:37;;;;;;;2.50;1.67;;;;;;;1.36;85.70;100077.94;1664935;84;21085;-64
2023/01/06 07:43:09;;;;;;;4.28;1.92;;;;;;;1.32;85.43;100080.58;1699307;84;21030;-65
2023/01/06 07:45:41;;;;;;;4.30;2.02;;;;;;;1.31;85.51;100088.33;1692710;84;21095;-65
2023/01/06 07:48:14;;;;;;;4.20;2.30;;;;;;;1.27;85.48;100089.58;1692627;84;21036;-65
2023/01/06 07:50:45;;;;;;;6.03;2.50;;;;;;;1.22;85.34;100104.86;1692621;85;21040;-65
2023/01/06 07:53:37;;;;;;;4.72;2.90;;;;;;;1.19;85.54;100113.24;1667698;85;21476;-66
2023/01/06 07:56:06;;;;;;;3.92;2.75;;;;;;;1.20;85.76;100135.68;1676807;85;21038;-65
2023/01/06 07:58:36;;;;;;;4.92;2.70;;;;;;;1.16;85.44;100126.17;1662457;86;21454;-64
2023/01/06 08:01:07;;;;;;;4.00;2.75;;;;;;;1.15;85.59;100132.06;1676690;85;21465;-64
2023/01/06 08:03:39;;;;;;;5.28;3.37;;;;;;;1.15;85.27;100150.10;1662584;86;21225;-64
2023/01/06 08:06:10;;;;;;;5.75;3.85;;;;;;;1.14;85.38;100146.55;1677060;85;21081;-65
2023/01/06 08:08:40;;;;;;;6.80;3.80;;;;;;;1.16;85.45;100155.85;1676725;85;21061;-66
2023/01/06 08:11:12;;;;;;;5.80;3.05;;;;;;;1.20;85.47;100166.71;1662391;85;21030;-64
2023/01/06 08:13:41;;;;;;;4.95;3.25;;;;;;;1.19;85.28;100178.50;1676687;84;21563;-65
2023/01/06 08:16:11;;;;;;;4.67;3.33;;;;;;;1.12;85.00;100180.06;1662394;86;21459;-66
2023/01/06 08:18:41;;;;;;;5.72;3.50;;;;;;;1.09;84.98;100191.14;1677121;85;21034;-65
2023/01/06 08:21:11;;;;;;;5.85;3.35;;;;;;;1.07;85.00;100202.58;1676746;84;21073;-64
2023/01/06 08:23:42;;;;;;;8.20;3.37;;;;;;;1.07;85.00;100216.06;1662720;86;21186;-65
2023/01/06 08:26:14;;;;;;;5.62;3.70;;;;;;;1.05;84.69;100227.49;1660194;86;21074;-64
2023/01/06 08:28:44;;;;;;;4.85;3.70;;;;;;;1.02;84.71;100233.17;1676836;85;21153;-65
2023/01/06 08:31:18;;;;;;;6.78;4.80;;;;;;;1.04;84.63;100237.93;1676953;85;21089;-65
2023/01/06 08:33:47;;;;;;;7.97;5.17;;;;;;;0.98;84.09;100242.54;1676855;85;21017;-71
2023/01/06 08:36:18;;;;;;;7.47;4.92;;;;;;;0.95;84.31;100254.45;1650696;85;21501;-66
2023/01/06 08:38:48;;;;;;;8.13;5.58;;;;;;;0.96;84.27;100242.68;1676684;84;21137;-65
2023/01/06 08:41:17;;;;;;;8.58;6.10;;;;;;;0.97;84.31;100251.13;1662587;86;21133;-66
2023/01/06 08:43:50;;;;;;;9.15;6.10;;;;;;;0.98;84.40;100256.88;1592160;89;21194;-66
2023/01/06 08:46:21;;;;;;;11.75;6.55;;;;;;;1.02;84.39;100250.21;1572289;90;21045;-65
2023/01/06 08:48:51;;;;;;;11.20;7.30;;;;;;;1.04;84.43;100260.36;1592243;90;21138;-65
2023/01/06 08:51:22;;;;;;;10.75;6.62;;;;;;;1.06;84.35;100266.97;1592605;90;21105;-65
2023/01/06 08:53:51;;;;;;;10.70;6.42;;;;;;;1.05;84.16;100272.86;1593321;89;21089;-64
2023/01/06 08:56:26;;;;;;;9.95;6.60;;;;;;;0.99;83.78;100278.81;1611450;88;21077;-64
2023/01/06 08:59:01;;;;;;;10.50;6.55;;;;;;;0.97;83.81;100274.55;1610776;89;21097;-64
2023/01/06 09:01:35;;;;;;;9.98;5.53;;;;;;;0.95;83.93;100284.13;1610884;89;21514;-67
2023/01/06 09:04:06;;;;;;;9.50;5.37;;;;;;;0.92;84.22;100277.17;1610744;88;21504;-67
2023/01/06 09:06:36;;;;;;;6.92;4.62;;;;;;;1.00;84.87;100270.23;1610557;88;21102;-68
2023/01/06 09:09:07;;;;;;;7.75;4.80;;;;;;;0.99;84.57;100267.17;1677758;84;21435;-66
2023/01/06 09:11:38;;;;;;;6.78;4.60;;;;;;;0.93;84.29;100264.04;1694945;84;21474;-67
2023/01/06 09:14:09;;;;;;;8.50;5.12;;;;;;;0.89;84.23;100276.09;1645846;86;21071;-68
2023/01/06 09:16:38;;;;;;;6.92;4.78;;;;;;;0.85;84.41;100282.77;1694955;84;21509;-67
2023/01/06 09:19:10;;;;;;;6.58;4.28;;;;;;;0.83;84.46;100275.30;1694998;84;21078;-69
2023/01/06 09:21:41;;;;;;;6.92;4.55;;;;;;;0.82;84.73;100277.65;1694694;85;21102;-67
2023/01/06 09:24:14;;;;;;;5.70;3.87;;;;;;;0.78;84.49;100291.05;1694736;84;21105;-68
2023/01/06 09:26:43;;;;;;;8.50;4.47;;;;;;;0.75;84.55;100300.77;1692317;84;21482;-66
2023/01/06 09:29:13;;;;;;;7.25;4.87;;;;;;;0.73;84.83;100297.34;1694684;84;21520;-67
2023/01/06 09:31:43;;;;;;;7.42;5.12;;;;;;;0.76;84.78;100308.36;1635182;87;21058;-65
2023/01/06 09:34:14;;;;;;;7.17;4.50;;;;;;;0.74;84.71;100313.89;1635320;88;21858;-66
2023/01/06 09:36:43;;;;;;;7.17;4.93;;;;;;;0.73;84.66;100324.31;1635316;88;21082;-68
2023/01/06 09:39:12;;;;;;;8.13;4.83;;;;;;;0.71;84.72;100320.91;1635082;88;21612;-67
2023/01/06 09:42:21;;;;;;;8.53;5.00;;;;;;;0.68;84.33;100314.93;1635316;87;21548;-65
2023/01/06 09:44:57;;;;;;;7.72;5.30;;;;;;;0.62;84.44;100310.41;1635225;87;21491;-66
2023/01/06 09:47:38;;;;;;;7.30;4.72;;;;;;;0.57;84.13;100320.75;1635295;87;21074;-66
2023/01/06 09:50:15;;;;;;;7.90;4.65;;;;;;;0.51;84.01;100317.74;1670530;84;21118;-65
2023/01/06 09:52:52;;;;;;;8.85;5.22;;;;;;;0.49;83.93;100319.22;1661118;85;21208;-66
2023/01/06 09:55:47;;;;;;;6.87;4.22;;;;;;;0.49;84.19;100327.80;1660005;84;21083;-66
2023/01/06 09:58:24;;;;;;;9.58;4.78;;;;;;;0.50;84.05;100328.16;1635159;87;21062;-66
2023/01/06 10:00:54;;;;;;;8.50;5.10;;;;;;;0.45;83.79;100333.96;1690465;84;21030;-67
2023/01/06 10:03:25;;;;;;;8.68;4.97;;;;;;;0.39;83.92;100345.28;1654816;86;21059;-67
2023/01/06 10:06:21;;;;;;;9.68;5.42;;;;;;;0.37;84.14;100348.60;1690188;85;21039;-67
2023/01/06 10:09:15;;;;;;;7.37;4.58;;;;;;;0.34;84.17;100360.14;1690377;84;21018;-67
2023/01/06 10:12:01;;;;;;;8.70;4.95;;;;;;;0.26;83.97;100364.36;1690392;85;21453;-66
2023/01/06 10:14:39;;;;;;;7.47;3.95;;;;;;;0.24;84.25;100361.44;1690425;85;21455;-65
2023/01/06 10:17:29;;;;;;;5.90;3.85;;;;;;;0.25;83.89;100374.77;1654573;86;21513;-65
2023/01/06 10:20:06;;;;;;;6.25;3.87;;;;;;;0.22;83.18;100371.00;1654475;87;21557;-66
2023/01/06 10:23:10;;;;;;;6.90;3.70;;;;;;;0.16;82.39;100376.91;1654728;87;21035;-67
2023/01/06 10:25:48;;;;;;;5.65;3.75;;;;;;;0.12;82.25;100393.47;1654503;86;21135;-67
2023/01/06 10:28:29;;;;;;;5.20;3.22;;;;;;;0.10;82.20;100390.05;1654690;86;21071;-65
2023/01/06 10:31:02;;;;;;;5.62;3.92;;;;;;;0.07;81.85;100400.59;1639768;87;21103;-68
2023/01/06 10:33:37;;;;;;;5.42;3.17;;;;;;;-0.02;81.38;100402.70;1665533;85;21059;-68
2023/01/06 10:36:16;;;;;;;4.62;2.85;;;;;;;-0.03;81.78;100418.49;1690389;84;21075;-67
2023/01/06 10:38:51;;;;;;;5.12;3.08;;;;;;;-0.02;82.04;100418.36;1690165;85;21015;-66
2023/01/06 10:41:50;;;;;;;5.35;3.08;;;;;;;-0.01;81.99;100419.22;1654723;87;21036;-67
2023/01/06 10:44:22;;;;;;;6.47;3.22;;;;;;;-0.02;82.08;100420.20;1689944;84;21506;-66
2023/01/06 10:46:51;;;;;;;5.97;3.45;;;;;;;0.01;82.29;100424.02;1665135;85;21041;-67
2023/01/06 10:49:21;;;;;;;6.30;3.42;;;;;;;0.03;82.33;100427.43;1654504;87;21479;-66
2023/01/06 10:51:58;;;;;;;8.65;4.60;;;;;;;0.05;82.62;100426.81;1654596;86;21102;-68
2023/01/06 10:54:29;;;;;;;7.12;3.30;;;;;;;0.10;82.73;100446.63;1655805;84;21095;-68
2023/01/06 10:57:03;;;;;;;6.03;3.02;;;;;;;0.15;83.10;100449.29;1670253;85;21121;-66
2023/01/06 10:59:33;;;;;;;5.45;2.65;;;;;;;0.16;82.31;100447.45;1685244;84;21051;-67
2023/01/06 11:02:02;;;;;;;4.95;2.45;;;;;;;0.12;81.87;100454.94;1687796;85;21112;-68
2023/01/06 11:04:31;;;;;;;4.65;2.47;;;;;;;0.11;82.01;100453.23;1687625;85;21474;-65
2023/01/06 11:07:01;;;;;;;3.22;2.30;;;;;;;0.12;81.68;100462.17;1687680;85;21106;-68
2023/01/06 11:09:39;;;;;;;3.40;2.10;;;;;;;0.10;80.84;100464.13;1690244;84;21297;-65
2023/01/06 11:12:22;;;;;;;3.90;2.15;;;;;;;0.07;80.29;100458.52;1687639;85;21526;-66
2023/01/06 11:15:01;;;;;;;3.15;1.80;;;;;;;0.04;80.19;100456.57;1687303;85;21062;-66
2023/01/06 11:17:30;;;;;;;3.22;2.05;;;;;;;-0.02;80.56;100458.77;1685217;85;21074;-67
2023/01/06 11:20:10;;;;;;;2.05;1.80;;;;;;;0.01;79.90;100455.48;1687615;85;21067;-68
2023/01/06 11:22:41;;;;;;;4.40;2.42;;;;;;;0.01;79.80;100463.07;1685070;84;21524;-67
2023/01/06 11:25:32;;;;;;;3.70;1.82;;;;;;;0.01;79.53;100467.11;1687599;84;21030;-66
2023/01/06 11:28:19;;;;;;;2.85;1.80;;;;;;;-0.01;79.58;100474.43;1676476;85;21011;-65
2023/01/06 11:31:11;;;;;;;2.17;1.20;;;;;;;0.01;79.98;100477.88;1660181;86;21104;-66
2023/01/06 11:34:00;;;;;;;4.92;1.82;;;;;;;0.02;79.40;100480.94;1635518;86;21056;-66
2023/01/06 11:36:32;;;;;;;3.80;1.67;;;;;;;0.01;79.42;100480.58;1638118;85;21447;-66
2023/01/06 11:39:12;;;;;;;2.60;1.80;;;;;;;0.03;79.02;100488.03;1660052;86;21033;-66
2023/01/06 11:41:45;;;;;;;3.62;1.80;;;;;;;-0.04;78.36;100502.97;1660001;86;21060;-64
2023/01/06 11:44:28;;;;;;;3.10;1.60;;;;;;;-0.09;78.36;100497.96;1637764;86;21049;-66
2023/01/06 11:47:21;;;;;;;2.25;1.80;;;;;;;-0.09;78.68;100501.14;1656862;86;21163;-66
2023/01/06 11:49:57;;;;;;;3.85;2.00;;;;;;;-0.07;78.20;100506.77;1660275;86;21041;-65
2023/01/06 11:52:30;;;;;;;2.85;1.70;;;;;;;-0.10;78.00;100514.25;1659974;86;21064;-67
2023/01/06 11:55:12;;;;;;;3.47;1.90;;;;;;;-0.16;77.59;100510.71;1607324;89;21111;-65
2023/01/06 11:57:47;;;;;;;3.25;1.70;;;;;;;-0.19;77.51;100516.35;1622778;87;21580;-66
2023/01/06 12:00:46;;;;;;;3.90;1.92;;;;;;;-0.23;77.26;100516.23;1643686;87;21066;-67
2023/01/06 12:03:40;;;;;;;4.30;2.25;;;;;;;-0.26;77.45;100517.34;1643324;86;21112;-68
2023/01/06 12:06:29;;;;;;;2.92;1.95;;;;;;;-0.24;77.60;100519.42;1629528;87;21101;-67
2023/01/06 12:09:08;;;;;;;3.17;2.22;;;;;;;-0.27;77.49;100518.33;1644088;87;21069;-67
2023/01/06 12:11:54;;;;;;;4.53;2.65;;;;;;;-0.28;77.90;100521.14;1630123;86;21645;-66
2023/01/06 12:14:34;;;;;;;5.45;2.58;;;;;;;-0.24;78.31;100524.80;1665085;85;21014;-67